Lower Island Cove, Canada
Current Conditions -  °F | °C
As of 11:00 AM on Monday 22 Dec 2014 (Local Time) from CYYT Reporting Station
Overcast Overcast  
Wind Chill: -9°   Ceiling: 1300
Heat Index: -3°   Visibility: 15mi
Dew Point: -5°   Wind: 13mph
Humidity: 86%   Direction: 30°NNE
Pressure: 30.38"   Gusts: NA
Location:  48°N, 53°W
Report Text: CYYT 221400Z 03011KT 15SM OVC013 M03/M05 A3038 RMK SC8 SLP296
Loading
Personal Weather Stations






























Interactive Weather Map New forecast layout! Learn more

10-Day Weather Forecast

Advertisements
Track Severe Weather on mobile